createdAt,value
2019-03-10T00:00:02.506Z,10.4
2019-03-10T00:15:02.986Z,10.5
2019-03-10T00:30:03.227Z,10.4
2019-03-10T00:45:02.692Z,10.4
2019-03-10T01:00:02.981Z,10.3
2019-03-10T01:15:03.289Z,10.2
2019-03-10T01:30:02.918Z,10
2019-03-10T01:45:03.384Z,9.9
2019-03-10T02:00:02.882Z,9.9
2019-03-10T02:15:03.173Z,9.5
2019-03-10T02:30:02.562Z,9.8
2019-03-10T02:45:02.964Z,9.9
2019-03-10T03:00:03.156Z,9.9
2019-03-10T03:15:02.565Z,9.9
2019-03-10T03:30:02.885Z,9.9
2019-03-10T03:45:03.203Z,9.8
2019-03-10T04:00:02.443Z,9.6
2019-03-10T04:15:02.801Z,9.4
2019-03-10T04:30:03.252Z,9.3
2019-03-10T04:45:02.690Z,9.2
2019-03-10T05:00:03.043Z,8.9
2019-03-10T05:15:03.380Z,8.3
2019-03-10T05:30:02.795Z,8
2019-03-10T05:45:03.059Z,7.8
2019-03-10T06:15:02.592Z,7.3
2019-03-10T06:30:03.345Z,7.1
2019-03-10T06:45:02.660Z,7.1
2019-03-10T07:00:03.367Z,7
2019-03-10T07:15:02.670Z,6.9
2019-03-10T07:30:02.954Z,7
2019-03-10T07:45:03.177Z,7.1
2019-03-10T08:00:02.524Z,7.1
2019-03-10T08:15:02.825Z,7.1
2019-03-10T08:30:03.178Z,7
2019-03-10T08:45:02.498Z,7.2
2019-03-10T09:00:02.820Z,7.4
2019-03-10T09:15:03.135Z,7.6
2019-03-10T09:30:02.481Z,7.8
2019-03-10T09:45:02.915Z,7.9
2019-03-10T10:00:03.142Z,8.2
2019-03-10T10:15:02.501Z,8.9
2019-03-10T10:30:02.970Z,9.7
2019-03-10T10:45:03.130Z,10.2
2019-03-10T11:00:03.423Z,10.2
2019-03-10T11:15:02.793Z,10.2
2019-03-10T11:30:03.323Z,10.2
2019-03-10T11:45:02.772Z,10.2
2019-03-10T12:00:03.007Z,10.2
2019-03-10T12:15:03.202Z,10.3
2019-03-10T12:30:02.768Z,10.6
2019-03-10T12:45:03.054Z,10.9
2019-03-10T13:00:03.425Z,11.8
2019-03-10T13:15:02.714Z,12.4
2019-03-10T13:30:03.247Z,12.7
2019-03-10T13:45:02.754Z,13.1
2019-03-10T14:00:03.208Z,13.1
2019-03-10T14:15:03.450Z,13.6
2019-03-10T14:30:02.818Z,13.7
2019-03-10T14:45:03.077Z,13.9
2019-03-10T15:00:03.345Z,13.8
2019-03-10T15:15:02.596Z,13.8
2019-03-10T15:30:03.006Z,14.2
2019-03-10T15:45:03.398Z,13.7
2019-03-10T16:00:02.663Z,11.8
2019-03-10T16:15:03.061Z,11.9
2019-03-10T16:30:03.442Z,11.8
2019-03-10T16:45:02.882Z,11.6
2019-03-10T17:00:03.384Z,11.4
2019-03-10T17:15:02.809Z,10.9
2019-03-10T17:30:03.209Z,10.5
2019-03-10T17:45:02.623Z,10.4
2019-03-10T18:00:02.949Z,10.2
2019-03-10T18:15:08.331Z,10.1
2019-03-10T18:30:02.631Z,10.4
2019-03-10T18:45:03.110Z,10.5
2019-03-10T19:00:02.653Z,10.2
2019-03-10T19:15:03.135Z,10.3
2019-03-10T19:30:02.492Z,10.1
2019-03-10T19:45:02.803Z,9.9
2019-03-10T20:00:03.161Z,9.9
2019-03-10T20:15:02.580Z,9.6
2019-03-10T20:30:02.947Z,9.3
2019-03-10T20:45:02.396Z,9.2
2019-03-10T21:00:02.938Z,9.4
2019-03-10T21:15:03.260Z,9.4
2019-03-10T21:30:02.585Z,9.3
2019-03-10T21:45:03.280Z,6.8
2019-03-10T22:00:03.460Z,5.9
2019-03-10T22:15:02.659Z,6.4
2019-03-10T22:30:03.219Z,6.3
2019-03-10T22:45:02.710Z,6.1
2019-03-10T23:00:03.291Z,6.2
2019-03-10T23:15:02.587Z,6.2
2019-03-10T23:30:02.949Z,6.1
2019-03-10T23:45:03.366Z,6.1
